Time;durP1;ratioP1;P1;durP2;ratioP2;P2;SDS_P1;SDS_P2;PMS_P1;PMS_P2;Temp;Humidity;BMP_temperature;BMP_pressure;BME280_temperature;BME280_humidity;BME280_pressure;Samples;Min_cycle;Max_cycle;Signal;HPM_P1;HPM_P2
2022/10/12 00:00:56;;;;;;;8.02;4.03;;;6.10;99.90;;;;;;5101084;28;20044;-68
2022/10/12 00:03:22;;;;;;;10.85;8.93;;;6.00;99.90;;;;;;5103669;28;20035;-68
2022/10/12 00:05:58;;;;;;;5.90;3.88;;;6.00;99.90;;;;;;5092932;28;20127;-68
2022/10/12 00:08:24;;;;;;;8.35;5.47;;;6.00;99.90;;;;;;5100543;28;20048;-68
2022/10/12 00:10:49;;;;;;;18.23;10.65;;;6.00;99.90;;;;;;5106078;28;20069;-67
2022/10/12 00:13:15;;;;;;;15.18;10.15;;;6.00;99.90;;;;;;5103839;28;20039;-67
2022/10/12 00:15:40;;;;;;;16.50;6.68;;;6.00;99.90;;;;;;5101423;28;20052;-68
2022/10/12 00:18:07;;;;;;;18.70;11.93;;;6.00;99.90;;;;;;5088356;28;20574;-67
2022/10/12 00:20:33;;;;;;;6.85;3.88;;;6.10;99.90;;;;;;5105648;28;20067;-67
2022/10/12 00:22:59;;;;;;;15.43;4.05;;;6.10;99.90;;;;;;5106782;28;20055;-67
2022/10/12 00:25:25;;;;;;;6.40;4.72;;;6.00;99.90;;;;;;5105843;28;20036;-68
2022/10/12 00:27:51;;;;;;;15.63;6.47;;;6.00;99.90;;;;;;5097149;28;20056;-67
2022/10/12 00:30:16;;;;;;;6.85;4.03;;;6.10;99.90;;;;;;5101159;28;20068;-67
2022/10/12 00:32:42;;;;;;;7.97;3.53;;;6.00;99.90;;;;;;5108109;28;20066;-67
2022/10/12 00:35:08;;;;;;;16.15;9.52;;;6.00;99.90;;;;;;5094781;28;20071;-67
2022/10/12 00:37:34;;;;;;;11.45;4.03;;;6.00;99.90;;;;;;5107723;28;20035;-68
2022/10/12 00:39:59;;;;;;;15.60;9.98;;;6.10;99.90;;;;;;5108245;28;20043;-68
2022/10/12 00:42:25;;;;;;;4.65;3.90;;;6.10;99.90;;;;;;5108761;28;20118;-68
2022/10/12 00:44:51;;;;;;;17.50;9.70;;;6.00;99.90;;;;;;5102064;28;20048;-68
2022/10/12 00:47:24;;;;;;;5.22;4.15;;;6.10;99.90;;;;;;5101697;28;20059;-67
2022/10/12 00:50:10;;;;;;;7.30;3.78;;;6.00;99.90;;;;;;5103492;28;20138;-67
2022/10/12 00:52:54;;;;;;;9.20;3.10;;;5.90;99.90;;;;;;5107860;28;20044;-67
2022/10/12 00:55:22;;;;;;;9.15;4.43;;;5.90;99.90;;;;;;5106602;28;20051;-68
2022/10/12 00:57:50;;;;;;;5.82;3.22;;;5.90;99.90;;;;;;5102493;28;20111;-68
2022/10/12 01:00:17;;;;;;;8.30;4.93;;;5.90;99.90;;;;;;5099465;28;20047;-68
2022/10/12 01:02:45;;;;;;;5.65;3.47;;;5.90;99.90;;;;;;5090524;28;20054;-68
2022/10/12 01:05:12;;;;;;;22.08;11.43;;;5.90;99.90;;;;;;5091040;28;20575;-68
2022/10/12 01:07:39;;;;;;;6.43;3.65;;;5.90;99.90;;;;;;5091290;28;20047;-68
2022/10/12 01:10:05;;;;;;;14.60;9.95;;;5.90;99.90;;;;;;5095942;28;20043;-68
2022/10/12 01:12:31;;;;;;;16.10;2.92;;;5.90;99.90;;;;;;5111873;27;20462;-67
2022/10/12 01:14:57;;;;;;;10.77;7.97;;;5.90;99.90;;;;;;5101846;28;20052;-68
2022/10/12 01:17:49;;;;;;;5.78;3.25;;;5.80;99.90;;;;;;5110161;28;20108;-67
2022/10/12 01:20:33;;;;;;;19.25;9.23;;;5.80;99.90;;;;;;5109141;27;20043;-68
2022/10/12 01:23:17;;;;;;;7.60;3.70;;;5.80;99.90;;;;;;5104462;28;20059;-67
2022/10/12 01:26:00;;;;;;;18.02;10.45;;;5.80;99.90;;;;;;5097083;28;20075;-68
2022/10/12 01:28:41;;;;;;;9.25;3.83;;;5.80;99.90;;;;;;5109472;28;20040;-67
2022/10/12 01:31:28;;;;;;;21.45;11.43;;;5.70;99.90;;;;;;5100786;28;20043;-68
2022/10/12 01:34:14;;;;;;;9.77;4.07;;;5.80;99.90;;;;;;5109713;28;20101;-68
2022/10/12 01:36:44;;;;;;;8.93;4.13;;;5.70;99.90;;;;;;5101719;28;20496;-68
2022/10/12 01:39:14;;;;;;;5.13;3.17;;;5.70;99.90;;;;;;5110131;28;20059;-68
2022/10/12 01:41:54;;;;;;;11.85;9.50;;;5.70;99.90;;;;;;5097757;28;20058;-68
2022/10/12 01:44:24;;;;;;;7.40;4.32;;;5.70;99.90;;;;;;5096977;28;20108;-67
2022/10/12 01:46:52;;;;;;;5.47;3.80;;;5.70;99.90;;;;;;5092355;28;20043;-67
2022/10/12 01:49:22;;;;;;;29.92;10.68;;;5.60;99.90;;;;;;5105103;28;20492;-67
2022/10/12 01:51:58;;;;;;;12.43;7.25;;;5.70;99.90;;;;;;5101118;28;20428;-68
2022/10/12 01:54:55;;;;;;;22.27;9.77;;;5.70;99.90;;;;;;5111413;28;20040;-67
2022/10/12 01:57:43;;;;;;;5.80;3.63;;;5.70;99.90;;;;;;5107862;28;20068;-68
2022/10/12 02:00:11;;;;;;;26.15;5.85;;;5.60;99.90;;;;;;5097763;28;20389;-68
2022/10/12 02:02:55;;;;;;;20.10;9.77;;;5.50;99.90;;;;;;5105248;28;20574;-68
2022/10/12 02:05:44;;;;;;;6.45;4.35;;;5.60;99.90;;;;;;5111268;28;20107;-68
2022/10/12 02:08:13;;;;;;;6.45;4.45;;;5.60;99.90;;;;;;5102138;28;20043;-68
2022/10/12 02:10:45;;;;;;;16.10;8.75;;;5.50;99.90;;;;;;5111189;28;20039;-68
2022/10/12 02:13:14;;;;;;;3.90;3.35;;;5.50;99.90;;;;;;5109578;28;20067;-68
2022/10/12 02:15:42;;;;;;;20.45;9.85;;;5.50;99.90;;;;;;5097394;28;20043;-68
2022/10/12 02:18:11;;;;;;;3.72;2.75;;;5.50;99.90;;;;;;5098772;28;20036;-68
2022/10/12 02:20:38;;;;;;;7.25;4.57;;;5.40;99.90;;;;;;5103112;28;20062;-68
2022/10/12 02:23:06;;;;;;;4.35;3.08;;;5.40;99.90;;;;;;5097234;28;20039;-68
2022/10/12 02:25:33;;;;;;;14.50;4.97;;;5.40;99.90;;;;;;5079728;28;20052;-67
2022/10/12 02:28:09;;;;;;;25.15;11.35;;;5.30;99.90;;;;;;5104665;28;20092;-68
2022/10/12 02:30:45;;;;;;;23.83;12.95;;;5.40;99.90;;;;;;5108599;28;20043;-67
2022/10/12 02:33:20;;;;;;;21.73;12.63;;;5.40;99.90;;;;;;5110007;28;20043;-68
2022/10/12 02:35:54;;;;;;;14.50;5.38;;;5.40;99.90;;;;;;5110391;28;20411;-68
2022/10/12 02:38:32;;;;;;;14.57;11.23;;;5.40;99.90;;;;;;5108270;28;20807;-67
2022/10/12 02:41:07;;;;;;;16.15;9.35;;;5.50;99.90;;;;;;5107085;28;20050;-68
2022/10/12 02:43:42;;;;;;;6.75;3.67;;;5.50;99.90;;;;;;5110089;28;20440;-67
2022/10/12 02:46:09;;;;;;;5.30;3.58;;;5.40;99.90;;;;;;5101168;28;20043;-68
2022/10/12 02:48:39;;;;;;;17.33;9.77;;;5.40;99.90;;;;;;5109789;28;20046;-68
2022/10/12 02:51:06;;;;;;;13.38;4.30;;;5.40;99.90;;;;;;5106169;28;20574;-68
2022/10/12 02:53:32;;;;;;;7.97;3.05;;;5.50;99.90;;;;;;5107420;28;20055;-68
2022/10/12 02:56:09;;;;;;;12.00;9.40;;;5.40;99.90;;;;;;5105683;27;20497;-68
2022/10/12 02:58:35;;;;;;;7.03;4.05;;;5.50;99.90;;;;;;5110013;28;20497;-68
2022/10/12 03:01:00;;;;;;;9.52;5.00;;;5.50;99.90;;;;;;5110020;28;20038;-68
2022/10/12 03:03:26;;;;;;;5.38;3.28;;;5.50;99.90;;;;;;5100383;28;20897;-68
2022/10/12 03:05:52;;;;;;;6.03;2.45;;;5.50;99.90;;;;;;5097493;28;20245;-68
2022/10/12 03:08:17;;;;;;;5.13;3.58;;;5.50;99.90;;;;;;5102939;28;20097;-68
2022/10/12 03:10:43;;;;;;;4.20;2.65;;;5.40;99.90;;;;;;5110166;28;20522;-68
2022/10/12 03:13:08;;;;;;;4.00;2.63;;;5.40;99.90;;;;;;5101413;28;20036;-68
2022/10/12 03:15:34;;;;;;;4.65;3.03;;;5.40;99.90;;;;;;5095340;28;20048;-68
2022/10/12 03:18:00;;;;;;;5.32;2.78;;;5.40;99.90;;;;;;5106311;28;20036;-68
2022/10/12 03:20:25;;;;;;;7.22;3.25;;;5.40;99.90;;;;;;5108309;27;20090;-68
2022/10/12 03:22:51;;;;;;;5.20;2.50;;;5.40;99.90;;;;;;5094332;28;20484;-68
2022/10/12 03:25:17;;;;;;;2.58;2.20;;;5.40;99.90;;;;;;5094787;28;20081;-67
2022/10/12 03:27:43;;;;;;;10.48;8.07;;;5.40;99.90;;;;;;5092794;28;20153;-68
2022/10/12 03:30:10;;;;;;;3.72;2.63;;;5.40;99.90;;;;;;5089698;28;20047;-68
2022/10/12 03:32:36;;;;;;;4.72;2.88;;;5.40;99.90;;;;;;5096120;28;20044;-68
2022/10/12 03:35:03;;;;;;;18.73;9.98;;;5.40;99.90;;;;;;5108830;28;20051;-68
2022/10/12 03:37:28;;;;;;;9.63;5.45;;;5.50;99.90;;;;;;5107457;28;20044;-67
2022/10/12 03:39:54;;;;;;;8.90;3.95;;;5.40;99.90;;;;;;5103345;28;20097;-68
2022/10/12 03:42:19;;;;;;;6.72;3.78;;;5.40;99.90;;;;;;5108462;28;20031;-68
2022/10/12 03:44:46;;;;;;;12.85;10.02;;;5.40;99.90;;;;;;5109021;28;20036;-68
2022/10/12 03:47:12;;;;;;;6.45;3.78;;;5.30;99.90;;;;;;5104515;27;20098;-67
2022/10/12 03:49:37;;;;;;;8.57;4.22;;;5.30;99.90;;;;;;5106403;28;20075;-68
2022/10/12 03:52:03;;;;;;;7.43;4.00;;;5.30;99.90;;;;;;5100083;28;20044;-68
2022/10/12 03:54:29;;;;;;;7.03;4.90;;;5.20;99.90;;;;;;5097822;28;20036;-68
2022/10/12 03:56:55;;;;;;;16.10;12.23;;;5.20;99.90;;;;;;5094327;28;20051;-67
2022/10/12 03:59:20;;;;;;;13.23;6.53;;;5.30;99.90;;;;;;5094851;28;20048;-68
2022/10/12 04:01:46;;;;;;;22.02;12.57;;;5.30;99.90;;;;;;5100047;27;20048;-67
2022/10/12 04:04:12;;;;;;;5.72;5.13;;;5.30;99.90;;;;;;5102369;28;20131;-67
2022/10/12 04:06:37;;;;;;;14.60;11.20;;;5.30;99.90;;;;;;5108813;28;20082;-67
2022/10/12 04:09:03;;;;;;;6.95;3.92;;;5.20;99.90;;;;;;5107850;28;20036;-68
2022/10/12 04:11:29;;;;;;;21.90;13.05;;;5.20;99.90;;;;;;5096012;28;20123;-67
2022/10/12 04:13:54;;;;;;;22.63;13.65;;;5.20;99.90;;;;;;5108303;28;20125;-67
2022/10/12 04:16:20;;;;;;;9.15;5.20;;;5.30;99.90;;;;;;5108003;28;20042;-68
2022/10/12 04:18:46;;;;;;;18.65;6.78;;;5.20;99.90;;;;;;5107964;28;20044;-68
2022/10/12 04:21:14;;;;;;;5.28;4.05;;;5.30;99.90;;;;;;5107915;28;20104;-67
2022/10/12 04:23:40;;;;;;;16.15;10.18;;;5.20;99.90;;;;;;5108080;28;20044;-68
2022/10/12 04:26:06;;;;;;;13.10;5.00;;;5.20;99.90;;;;;;5102346;28;20119;-68
2022/10/12 04:28:31;;;;;;;4.18;3.10;;;5.20;99.90;;;;;;5090240;28;20036;-68
2022/10/12 04:30:57;;;;;;;5.70;4.00;;;5.10;99.90;;;;;;5087768;28;20036;-67
2022/10/12 04:33:23;;;;;;;7.32;4.43;;;5.10;99.90;;;;;;5089689;28;20040;-67
2022/10/12 04:35:48;;;;;;;12.57;11.23;;;5.10;99.90;;;;;;5107707;28;20126;-68
2022/10/12 04:38:14;;;;;;;14.45;11.50;;;5.10;99.90;;;;;;5107843;28;20039;-67
2022/10/12 04:40:40;;;;;;;16.48;13.20;;;5.10;99.90;;;;;;5102506;28;20412;-67
2022/10/12 04:43:05;;;;;;;6.70;5.18;;;5.10;99.90;;;;;;5107794;28;20157;-67
2022/10/12 04:45:31;;;;;;;8.05;5.57;;;5.10;99.90;;;;;;5106121;28;20051;-68
2022/10/12 04:47:57;;;;;;;6.25;5.55;;;5.00;99.90;;;;;;5096763;28;20104;-68
2022/10/12 04:50:22;;;;;;;8.63;5.07;;;5.00;99.90;;;;;;5098794;28;20063;-68
2022/10/12 04:52:48;;;;;;;6.03;4.00;;;5.00;99.90;;;;;;5097784;28;20541;-68
2022/10/12 04:55:13;;;;;;;25.33;15.65;;;5.00;99.90;;;;;;5107800;28;20581;-68
2022/10/12 04:57:39;;;;;;;13.90;7.03;;;5.10;99.90;;;;;;5092759;28;20044;-68
2022/10/12 05:00:06;;;;;;;27.60;19.40;;;5.00;99.90;;;;;;5095399;28;20048;-68
2022/10/12 05:02:32;;;;;;;17.67;7.18;;;5.10;99.90;;;;;;5094559;28;20145;-67
2022/10/12 05:04:58;;;;;;;29.67;19.15;;;5.10;99.90;;;;;;5103067;28;20507;-68
2022/10/12 05:07:23;;;;;;;16.13;7.53;;;5.10;99.90;;;;;;5107588;28;20050;-68
2022/10/12 05:09:50;;;;;;;27.67;20.52;;;5.10;99.90;;;;;;5090850;28;20040;-68
2022/10/12 05:12:16;;;;;;;12.98;7.75;;;5.10;99.90;;;;;;5087779;28;20036;-68
2022/10/12 05:14:43;;;;;;;11.68;7.95;;;5.10;99.90;;;;;;5094979;28;20044;-68
2022/10/12 05:17:09;;;;;;;24.10;19.77;;;5.10;99.90;;;;;;5104513;28;20122;-67
2022/10/12 05:19:35;;;;;;;15.00;8.35;;;5.10;99.90;;;;;;5106941;28;20118;-67
2022/10/12 05:22:00;;;;;;;12.88;8.70;;;5.10;99.90;;;;;;5086480;28;20182;-68
2022/10/12 05:24:26;;;;;;;13.57;7.97;;;5.00;99.90;;;;;;5085944;28;20052;-67
2022/10/12 05:26:52;;;;;;;26.48;21.00;;;5.00;99.90;;;;;;5086700;28;20052;-67
2022/10/12 05:29:17;;;;;;;10.50;7.28;;;5.00;99.90;;;;;;5091896;28;20048;-68
2022/10/12 05:31:43;;;;;;;11.45;7.75;;;5.00;99.90;;;;;;5105399;28;20050;-67
2022/10/12 05:34:08;;;;;;;11.95;7.60;;;4.90;99.90;;;;;;5101113;28;20412;-68
2022/10/12 05:36:34;;;;;;;11.63;7.25;;;4.90;99.90;;;;;;5102889;28;20031;-67
2022/10/12 05:39:00;;;;;;;15.10;8.75;;;4.80;99.90;;;;;;5106712;28;20123;-68
2022/10/12 05:41:25;;;;;;;25.90;19.42;;;4.80;99.90;;;;;;5105382;28;20040;-67
2022/10/12 05:43:52;;;;;;;12.80;8.10;;;4.80;99.90;;;;;;5100110;28;20062;-68
2022/10/12 05:46:18;;;;;;;17.25;8.63;;;4.80;99.90;;;;;;5089948;28;20055;-68
2022/10/12 05:48:43;;;;;;;27.00;20.13;;;4.80;99.90;;;;;;5104789;28;20035;-67
2022/10/12 05:51:09;;;;;;;12.05;6.47;;;4.80;99.90;;;;;;5103958;28;20039;-67
2022/10/12 05:53:36;;;;;;;15.63;6.68;;;4.70;99.90;;;;;;5101136;28;20058;-68
2022/10/12 05:56:02;;;;;;;14.02;7.40;;;4.70;99.90;;;;;;5097423;27;20051;-68
2022/10/12 05:58:29;;;;;;;25.23;20.83;;;4.70;99.90;;;;;;5102180;28;20791;-67
2022/10/12 06:01:02;;;;;;;18.85;8.20;;;4.70;99.90;;;;;;5100019;28;20059;-67
2022/10/12 06:03:28;;;;;;;10.80;6.80;;;4.70;99.90;;;;;;5095793;28;20097;-67
2022/10/12 06:05:53;;;;;;;31.77;22.10;;;4.60;99.90;;;;;;5110893;28;20416;-67
2022/10/12 06:08:19;;;;;;;29.67;22.52;;;4.60;99.90;;;;;;5104474;28;20043;-67
2022/10/12 06:10:48;;;;;;;18.38;7.57;;;4.70;99.90;;;;;;5102619;28;20043;-67
2022/10/12 06:13:16;;;;;;;15.32;7.80;;;4.70;99.90;;;;;;5106590;27;20043;-67
2022/10/12 06:15:44;;;;;;;42.35;24.88;;;4.70;99.90;;;;;;5103472;28;20044;-67
2022/10/12 06:18:09;;;;;;;10.05;8.82;;;4.70;99.90;;;;;;5107166;28;20051;-67
2022/10/12 06:20:35;;;;;;;32.90;24.38;;;4.70;99.90;;;;;;5110331;28;20070;-67
2022/10/12 06:23:01;;;;;;;31.75;21.92;;;4.60;99.90;;;;;;5108737;28;20083;-67
2022/10/12 06:25:26;;;;;;;22.08;8.25;;;4.80;99.90;;;;;;5104601;28;20077;-67
2022/10/12 06:27:52;;;;;;;15.60;6.80;;;4.70;99.90;;;;;;5095174;28;20063;-67
2022/10/12 06:30:18;;;;;;;36.63;24.50;;;4.70;99.90;;;;;;5108526;28;20519;-67
2022/10/12 06:32:43;;;;;;;34.50;24.83;;;4.70;99.90;;;;;;5109616;28;20052;-67
2022/10/12 06:35:09;;;;;;;37.38;24.65;;;4.70;99.90;;;;;;5107887;28;20122;-67
2022/10/12 06:37:35;;;;;;;31.70;22.25;;;4.80;99.90;;;;;;5110252;27;20102;-67
2022/10/12 06:40:01;;;;;;;13.85;8.73;;;4.80;99.90;;;;;;5097745;28;20413;-67
2022/10/12 06:42:27;;;;;;;21.48;14.38;;;4.80;99.90;;;;;;5110359;28;20044;-68
2022/10/12 06:44:52;;;;;;;10.88;5.80;;;4.70;99.90;;;;;;5110207;28;20044;-67
2022/10/12 06:47:18;;;;;;;5.75;3.95;;;4.70;99.90;;;;;;5094873;28;20540;-67
2022/10/12 06:49:43;;;;;;;22.70;7.72;;;4.70;99.90;;;;;;5090217;28;20055;-67
2022/10/12 06:52:09;;;;;;;26.88;19.58;;;4.70;99.90;;;;;;5089409;28;20070;-67
2022/10/12 06:54:35;;;;;;;13.02;9.75;;;4.70;99.90;;;;;;5092526;28;20842;-67
2022/10/12 06:57:00;;;;;;;9.52;8.30;;;4.80;99.90;;;;;;5104812;28;20035;-67
2022/10/12 06:59:26;;;;;;;13.18;8.27;;;4.70;99.90;;;;;;5093227;28;20455;-67
2022/10/12 07:01:51;;;;;;;19.30;17.23;;;4.70;99.90;;;;;;5089386;28;20028;-67
2022/10/12 07:04:17;;;;;;;13.20;7.97;;;4.80;99.90;;;;;;5090534;28;20051;-67
2022/10/12 07:06:43;;;;;;;18.58;16.77;;;4.80;99.90;;;;;;5092249;28;20526;-67
2022/10/12 07:09:09;;;;;;;8.23;5.85;;;4.80;99.90;;;;;;5090763;28;20111;-67
2022/10/12 07:11:35;;;;;;;20.50;18.15;;;4.80;99.90;;;;;;5094744;28;20150;-67
2022/10/12 07:14:00;;;;;;;10.40;6.53;;;4.80;99.90;;;;;;5107214;28;20042;-67
2022/10/12 07:16:26;;;;;;;21.50;18.77;;;4.90;99.90;;;;;;5092664;28;20078;-67
2022/10/12 07:18:52;;;;;;;14.35;7.63;;;5.10;99.90;;;;;;5092223;28;20032;-67
2022/10/12 07:21:17;;;;;;;11.85;7.28;;;4.90;99.90;;;;;;5102400;28;20051;-67
2022/10/12 07:23:43;;;;;;;22.83;9.50;;;5.00;99.90;;;;;;5108629;28;20066;-67
2022/10/12 07:26:09;;;;;;;32.10;21.92;;;4.90;99.90;;;;;;5105801;28;20043;-67
2022/10/12 07:28:35;;;;;;;10.93;8.43;;;5.00;99.90;;;;;;5092560;28;20128;-67
2022/10/12 07:31:06;;;;;;;17.75;10.07;;;5.10;99.90;;;;;;5095452;28;20101;-67
2022/10/12 07:33:34;;;;;;;35.65;25.60;;;5.10;99.90;;;;;;5097715;28;20146;-67
2022/10/12 07:36:01;;;;;;;19.38;10.65;;;5.70;99.90;;;;;;5106752;28;20052;-67
2022/10/12 07:38:28;;;;;;;15.68;10.20;;;5.20;99.90;;;;;;5108978;28;20106;-67
2022/10/12 07:40:54;;;;;;;51.60;29.60;;;5.40;99.90;;;;;;5098842;28;20080;-67
2022/10/12 07:43:19;;;;;;;32.15;13.43;;;5.40;99.90;;;;;;5104825;28;20093;-67
2022/10/12 07:45:45;;;;;;;54.80;30.65;;;5.80;99.90;;;;;;5098134;28;20512;-67
2022/10/12 07:48:11;;;;;;;23.85;10.98;;;5.60;99.90;;;;;;5099562;28;20431;-67
2022/10/12 07:50:37;;;;;;;37.05;11.73;;;5.80;99.90;;;;;;5101676;28;20052;-67
2022/10/12 07:53:02;;;;;;;30.77;9.52;;;6.00;99.90;;;;;;5108419;28;20123;-67
2022/10/12 07:55:30;;;;;;;47.08;31.58;;;6.20;99.90;;;;;;5108615;28;20058;-67
2022/10/12 07:58:00;;;;;;;23.75;10.63;;;6.20;99.90;;;;;;5103093;28;20040;-67
2022/10/12 08:00:26;;;;;;;20.88;9.02;;;6.30;99.90;;;;;;5099490;28;20043;-67
2022/10/12 08:02:52;;;;;;;21.52;8.48;;;6.40;99.90;;;;;;5108542;28;20039;-67
2022/10/12 08:05:20;;;;;;;32.03;15.32;;;6.40;99.90;;;;;;5104130;28;20039;-67
2022/10/12 08:07:47;;;;;;;49.78;33.65;;;6.50;99.90;;;;;;5106213;28;20602;-67
2022/10/12 08:10:13;;;;;;;21.15;10.52;;;6.50;99.90;;;;;;5097804;28;20058;-67
2022/10/12 08:12:38;;;;;;;19.77;11.00;;;6.70;99.90;;;;;;5095201;28;20493;-67
2022/10/12 08:15:05;;;;;;;16.83;9.38;;;6.70;99.90;;;;;;5097009;28;20093;-68
2022/10/12 08:17:30;;;;;;;58.08;31.98;;;6.80;99.90;;;;;;5090324;28;20154;-67
2022/10/12 08:19:56;;;;;;;18.17;11.02;;;6.80;99.90;;;;;;5093114;28;20131;-68
2022/10/12 08:22:22;;;;;;;58.10;34.58;;;7.00;99.90;;;;;;5097380;28;20047;-68
2022/10/12 08:24:47;;;;;;;19.55;10.07;;;7.10;99.90;;;;;;5104570;28;20068;-67
2022/10/12 08:27:13;;;;;;;26.52;9.25;;;7.20;99.90;;;;;;5104868;28;20042;-68
2022/10/12 08:29:38;;;;;;;56.13;33.40;;;7.30;99.90;;;;;;5107592;28;20051;-68
2022/10/12 08:32:05;;;;;;;59.03;35.45;;;7.50;99.90;;;;;;5108194;28;20611;-67
2022/10/12 08:34:30;;;;;;;58.13;36.22;;;7.60;99.90;;;;;;5094116;28;20047;-67
2022/10/12 08:36:58;;;;;;;83.10;35.78;;;7.80;99.90;;;;;;5104828;28;20032;-68
2022/10/12 08:39:24;;;;;;;43.40;18.40;;;7.90;99.90;;;;;;5107645;28;20493;-68
2022/10/12 08:42:34;;;;;;;33.75;13.10;;;8.00;99.90;;;;;;5107722;28;20036;-68
2022/10/12 08:45:22;;;;;;;66.95;35.58;;;8.10;99.90;;;;;;5107950;28;20051;-67
2022/10/12 08:47:53;;;;;;;;;;;8.20;99.90;;;;;;5107102;28;20040;-68
2022/10/12 08:50:28;;;;;;;23.23;10.60;;;8.30;99.90;;;;;;5108190;28;19935;-68
2022/10/12 08:53:00;;;;;;;26.92;13.90;;;8.40;99.90;;;;;;5095989;28;20114;-68
2022/10/12 08:55:38;;;;;;;61.65;34.80;;;8.50;99.90;;;;;;5096089;28;20048;-68
2022/10/12 08:58:22;;;;;;;25.95;11.98;;;8.60;99.90;;;;;;5102897;28;20044;-68
2022/10/12 09:00:51;;;;;;;62.33;32.13;;;8.80;99.90;;;;;;5097666;28;20111;-68
2022/10/12 09:03:29;;;;;;;49.17;31.23;;;8.80;99.90;;;;;;5097322;28;20192;-67
2022/10/12 09:06:24;;;;;;;51.22;31.17;;;8.90;99.90;;;;;;5097480;28;20123;-68
2022/10/12 09:09:02;;;;;;;58.10;32.53;;;9.10;99.90;;;;;;5088348;28;20440;-68
2022/10/12 09:11:48;;;;;;;60.42;31.10;;;9.30;99.90;;;;;;5093981;28;20044;-68
2022/10/12 09:14:22;;;;;;;50.88;30.20;;;9.40;99.90;;;;;;5095782;28;20055;-68
2022/10/12 09:16:50;;;;;;;55.00;27.55;;;10.10;99.90;;;;;;5084944;28;20500;-67
2022/10/12 09:19:23;;;;;;;56.22;28.00;;;9.60;99.90;;;;;;5095268;28;20413;-67
2022/10/12 09:21:49;;;;;;;55.90;28.65;;;9.70;99.90;;;;;;5100116;28;20447;-68
2022/10/12 09:24:25;;;;;;;54.97;27.23;;;9.80;99.90;;;;;;5102439;28;20122;-67
2022/10/12 09:26:56;;;;;;;54.65;23.80;;;10.00;99.90;;;;;;5097813;28;20899;-67
2022/10/12 09:29:30;;;;;;;49.25;27.15;;;10.10;99.90;;;;;;5104688;28;20039;-67
2022/10/12 09:32:22;;;;;;;40.05;24.95;;;10.20;99.90;;;;;;5111646;27;20051;-68
2022/10/12 09:34:48;;;;;;;55.40;24.85;;;10.30;99.90;;;;;;5107855;28;20047;-67
2022/10/12 09:37:20;;;;;;;51.60;24.30;;;10.40;99.90;;;;;;5108492;28;20039;-67
2022/10/12 09:39:46;;;;;;;44.60;22.58;;;10.50;99.90;;;;;;5100190;28;20051;-67
2022/10/12 09:42:12;;;;;;;58.85;24.27;;;10.70;99.90;;;;;;5104543;28;20055;-67
2022/10/12 09:44:48;;;;;;;50.10;25.17;;;11.00;99.90;;;;;;5103662;28;20055;-68
2022/10/12 09:47:19;;;;;;;53.50;24.88;;;11.10;99.90;;;;;;5097339;28;20100;-67
2022/10/12 09:49:50;;;;;;;47.58;22.17;;;11.30;99.90;;;;;;5104251;28;20059;-67
2022/10/12 09:52:23;;;;;;;33.92;21.23;;;11.50;99.90;;;;;;5090063;28;20127;-67
2022/10/12 09:54:58;;;;;;;35.63;20.90;;;11.80;99.90;;;;;;5109712;28;20086;-68
2022/10/12 09:57:32;;;;;;;56.05;22.85;;;12.00;99.90;;;;;;5107504;28;20048;-68
2022/10/12 10:00:01;;;;;;;36.63;16.70;;;12.20;99.90;;;;;;5103797;28;20460;-68
2022/10/12 10:02:27;;;;;;;58.95;18.30;;;12.40;99.90;;;;;;5093129;27;20052;-69
2022/10/12 10:04:54;;;;;;;25.15;14.43;;;12.70;99.90;;;;;;5110989;28;20050;-69
2022/10/12 10:07:22;;;;;;;36.88;15.88;;;12.80;99.90;;;;;;5092234;28;20132;-69
2022/10/12 10:10:12;;;;;;;35.08;15.27;;;12.90;99.90;;;;;;5091172;28;20056;-67
2022/10/12 10:12:57;;;;;;;39.10;13.43;;;13.10;99.90;;;;;;5096866;28;20175;-67
2022/10/12 10:15:26;;;;;;;42.13;15.68;;;13.20;99.90;;;;;;5102510;28;20044;-68
2022/10/12 10:17:55;;;;;;;32.65;13.23;;;13.40;99.90;;;;;;5098607;28;20122;-67
2022/10/12 10:20:31;;;;;;;41.80;13.38;;;13.40;99.90;;;;;;5105257;28;20056;-68
2022/10/12 10:22:58;;;;;;;28.17;10.88;;;13.60;99.90;;;;;;5108093;28;20050;-67
2022/10/12 10:25:25;;;;;;;19.48;9.98;;;13.60;99.90;;;;;;5104804;28;20174;-67
2022/10/12 10:28:23;;;;;;;20.38;12.43;;;13.90;99.90;;;;;;5095276;28;20108;-69
2022/10/12 10:31:01;;;;;;;30.63;10.40;;;14.00;99.90;;;;;;5099544;28;20052;-68
2022/10/12 10:34:16;;;;;;;32.20;11.45;;;14.00;99.90;;;;;;5105775;28;20104;-69
2022/10/12 10:37:05;;;;;;;25.63;9.68;;;14.20;99.90;;;;;;5101042;28;20066;-68
2022/10/12 10:39:53;;;;;;;32.10;9.50;;;14.30;99.90;;;;;;5100474;28;20038;-67
2022/10/12 10:42:38;;;;;;;16.50;8.50;;;14.60;99.90;;;;;;5101408;28;20054;-67
2022/10/12 10:45:30;;;;;;;19.60;7.90;;;14.60;99.90;;;;;;5105784;28;20097;-68
2022/10/12 10:48:20;;;;;;;20.13;7.90;;;14.60;99.90;;;;;;5096850;28;20562;-68
2022/10/12 10:50:59;;;;;;;23.73;7.60;;;14.80;99.90;;;;;;5101044;28;20111;-67
2022/10/12 10:53:28;;;;;;;10.98;6.25;;;14.80;99.90;;;;;;5104319;28;20051;-67
2022/10/12 10:56:10;;;;;;;28.10;7.13;;;14.80;99.90;;;;;;5094912;28;20413;-67
2022/10/12 10:58:45;;;;;;;21.55;6.63;;;14.80;99.90;;;;;;5109499;28;20044;-68
2022/10/12 11:01:47;;;;;;;24.70;7.03;;;14.90;99.90;;;;;;5104397;28;20085;-68
2022/10/12 11:04:18;;;;;;;17.42;6.80;;;14.90;99.90;;;;;;5091944;28;20815;-68
2022/10/12 11:06:48;;;;;;;16.05;6.78;;;14.90;99.90;;;;;;5105804;28;20127;-68
2022/10/12 11:09:29;;;;;;;25.08;8.23;;;15.00;99.90;;;;;;5109101;28;20035;-68
2022/10/12 11:12:04;;;;;;;22.42;6.68;;;15.20;99.90;;;;;;5110483;28;20096;-69
2022/10/12 11:14:43;;;;;;;25.98;7.63;;;15.20;99.90;;;;;;5109492;28;20040;-69
2022/10/12 11:17:27;;;;;;;30.70;9.45;;;15.20;99.90;;;;;;5102138;28;20050;-69
2022/10/12 11:20:30;;;;;;;19.00;8.35;;;15.40;99.90;;;;;;5095626;28;20067;-69
2022/10/12 11:23:32;;;;;;;19.00;8.20;;;15.60;99.90;;;;;;5105801;28;20082;-70
2022/10/12 11:26:18;;;;;;;25.80;9.05;;;15.70;99.90;;;;;;5102816;28;20488;-70
2022/10/12 11:28:44;;;;;;;28.25;10.10;;;15.60;99.90;;;;;;5105633;28;20078;-70
2022/10/12 11:31:38;;;;;;;21.45;11.45;;;15.50;99.90;;;;;;5090811;28;20071;-70
2022/10/12 11:34:07;;;;;;;31.30;11.00;;;15.40;99.90;;;;;;5077537;28;20059;-70
2022/10/12 11:36:38;;;;;;;31.98;8.48;;;15.50;99.90;;;;;;5100298;28;20047;-70
2022/10/12 11:39:15;;;;;;;28.65;9.45;;;15.50;99.90;;;;;;5092314;28;20055;-71
2022/10/12 11:41:45;;;;;;;18.98;9.07;;;15.70;99.90;;;;;;5092849;28;20062;-70
2022/10/12 11:44:11;;;;;;;24.08;9.95;;;15.50;99.90;;;;;;5097539;28;20043;-70
2022/10/12 11:46:44;;;;;;;18.38;7.68;;;15.50;99.90;;;;;;5098018;28;20489;-71
2022/10/12 11:49:39;;;;;;;23.50;8.05;;;15.70;99.90;;;;;;5099478;28;20039;-71
2022/10/12 11:52:08;;;;;;;20.60;8.90;;;15.60;99.90;;;;;;5085863;28;20059;-71
2022/10/12 11:55:04;;;;;;;19.13;9.65;;;15.80;99.90;;;;;;5092709;28;20048;-70
2022/10/12 11:57:35;;;;;;;22.90;8.68;;;15.80;99.90;;;;;;5099091;28;20040;-71
2022/10/12 12:00:06;;;;;;;16.42;6.45;;;15.90;99.90;;;;;;5098402;28;20050;-71
2022/10/12 12:02:49;;;;;;;22.15;7.70;;;15.90;99.90;;;;;;5093781;28;20488;-71
2022/10/12 12:05:15;;;;;;;26.77;7.60;;;16.10;99.90;;;;;;5096506;28;20074;-72
2022/10/12 12:07:49;;;;;;;14.73;5.57;;;16.20;99.90;;;;;;5089414;28;20074;-71
2022/10/12 12:10:29;;;;;;;20.70;6.28;;;16.10;99.90;;;;;;5095133;28;20048;-71
2022/10/12 12:13:11;;;;;;;19.02;6.25;;;16.20;99.10;;;;;;5103631;28;20126;-71
2022/10/12 12:15:57;;;;;;;21.88;6.75;;;16.30;99.90;;;;;;5092300;28;20868;-72
2022/10/12 12:18:26;;;;;;;15.30;6.32;;;16.30;99.90;;;;;;5088777;28;20048;-71
2022/10/12 12:21:07;;;;;;;15.98;5.38;;;16.40;99.90;;;;;;5107430;28;20131;-71
2022/10/12 12:23:38;;;;;;;23.02;6.38;;;16.30;99.00;;;;;;5102897;28;20051;-74
2022/10/12 12:26:10;;;;;;;13.90;4.40;;;16.40;97.60;;;;;;5106994;28;20039;-71
2022/10/12 12:28:38;;;;;;;26.23;6.07;;;16.40;97.10;;;;;;5108161;28;20058;-71
2022/10/12 12:31:13;;;;;;;21.17;6.53;;;17.00;97.40;;;;;;5087385;28;20080;-71
2022/10/12 12:33:41;;;;;;;18.38;6.53;;;16.50;97.50;;;;;;5091215;28;20052;-71
2022/10/12 12:36:10;;;;;;;16.67;5.72;;;16.60;95.70;;;;;;5107067;28;20058;-71
2022/10/12 12:38:47;;;;;;;22.08;7.82;;;16.50;97.30;;;;;;5101339;28;20044;-71
2022/10/12 12:41:20;;;;;;;19.73;6.45;;;16.70;96.60;;;;;;5097159;28;20540;-71
2022/10/12 12:43:52;;;;;;;20.40;6.75;;;16.70;95.70;;;;;;5093053;28;20548;-71
2022/10/12 12:46:18;;;;;;;10.10;5.05;;;17.00;96.80;;;;;;5100502;28;20114;-71
2022/10/12 12:48:44;;;;;;;13.60;6.35;;;16.90;95.80;;;;;;5105090;28;20040;-71
2022/10/12 12:51:37;;;;;;;10.02;5.80;;;17.00;94.90;;;;;;5106188;28;20485;-71
2022/10/12 12:54:17;;;;;;;18.20;6.55;;;16.90;93.60;;;;;;5092796;28;20563;-71
2022/10/12 12:57:07;;;;;;;20.30;6.00;;;16.90;95.40;;;;;;5103751;28;20061;-72
2022/10/12 12:59:53;;;;;;;16.13;7.25;;;17.10;95.40;;;;;;5097669;28;20139;-71
2022/10/12 13:02:55;;;;;;;27.85;9.15;;;17.10;95.10;;;;;;5102517;28;20075;-71